createdAt,value
2019-02-26T00:02:09.877Z,73.80
2019-02-26T00:04:39.918Z,74.92
2019-02-26T00:07:09.843Z,76.41
2019-02-26T00:09:39.864Z,77.38
2019-02-26T00:12:09.878Z,77.41
2019-02-26T00:14:39.823Z,75.27
2019-02-26T00:17:11.195Z,74.30
2019-02-26T00:19:41.431Z,74.11
2019-02-26T00:22:12.157Z,73.86
2019-02-26T00:24:44.466Z,73.56
2019-02-26T00:27:14.647Z,74.20
2019-02-26T00:29:46.278Z,74.42
2019-02-26T00:32:18.395Z,74.27
2019-02-26T00:34:47.931Z,74.48
2019-02-26T00:37:17.864Z,74.99
2019-02-26T00:39:50.146Z,75.87
2019-02-26T00:42:23.576Z,75.79
2019-02-26T00:44:55.313Z,76.23
2019-02-26T00:47:24.242Z,78.40
2019-02-26T00:49:54.126Z,77.73
2019-02-26T00:52:24.029Z,76.49
2019-02-26T00:54:57.627Z,75.99
2019-02-26T00:57:27.334Z,76.01
2019-02-26T00:59:57.191Z,75.94
2019-02-26T01:02:27.116Z,77.64
2019-02-26T01:04:56.953Z,78.96
2019-02-26T01:07:28.202Z,79.34
2019-02-26T01:09:59.227Z,79.24
2019-02-26T01:12:30.838Z,79.61
2019-02-26T01:15:02.593Z,79.34
2019-02-26T01:17:35.653Z,78.97
2019-02-26T01:20:08.037Z,78.91
2019-02-26T01:22:40.167Z,78.65
2019-02-26T01:25:10.738Z,78.51
2019-02-26T01:27:43.707Z,78.89
2019-02-26T01:30:18.199Z,78.88
2019-02-26T01:32:46.062Z,78.70
2019-02-26T01:35:16.172Z,78.75
2019-02-26T01:37:46.143Z,78.42
2019-02-26T01:40:19.195Z,78.38
2019-02-26T01:42:52.186Z,78.41
2019-02-26T01:45:21.741Z,78.18
2019-02-26T01:47:52.796Z,77.66
2019-02-26T01:50:22.795Z,77.14
2019-02-26T01:52:54.451Z,77.01
2019-02-26T01:55:25.318Z,77.09
2019-02-26T01:57:58.554Z,77.37
2019-02-26T02:00:27.916Z,77.39
2019-02-26T02:02:57.837Z,77.47
2019-02-26T02:05:29.464Z,77.48
2019-02-26T02:07:59.721Z,77.47
2019-02-26T02:10:29.642Z,77.54
2019-02-26T02:13:02.281Z,78.01
2019-02-26T02:15:31.237Z,77.79
2019-02-26T02:18:01.771Z,77.76
2019-02-26T02:20:32.908Z,77.44
2019-02-26T02:23:04.700Z,77.25
2019-02-26T02:25:36.128Z,77.28
2019-02-26T02:28:06.304Z,77.28
2019-02-26T02:30:39.019Z,77.48
2019-02-26T02:33:08.073Z,77.75
2019-02-26T02:35:38.048Z,77.78
2019-02-26T02:38:08.005Z,77.66
2019-02-26T02:40:40.187Z,77.60
2019-02-26T02:43:13.176Z,77.66
2019-02-26T02:45:42.296Z,77.21
2019-02-26T02:48:14.091Z,76.70
2019-02-26T02:50:43.884Z,75.96
2019-02-26T02:53:13.828Z,75.73
2019-02-26T02:55:46.391Z,74.99
2019-02-26T02:58:18.327Z,75.40
2019-02-26T03:00:49.376Z,75.96
2019-02-26T03:03:18.689Z,76.39
2019-02-26T03:05:48.619Z,77.86
2019-02-26T03:08:22.043Z,78.49
2019-02-26T03:10:50.430Z,78.41
2019-02-26T03:13:22.901Z,78.27
2019-02-26T03:15:53.552Z,78.16
2019-02-26T03:18:23.528Z,78.20
2019-02-26T03:20:56.156Z,78.42
2019-02-26T03:23:25.167Z,78.21
2019-02-26T03:25:56.053Z,78.03
2019-02-26T03:28:25.947Z,77.84
2019-02-26T03:30:56.983Z,78.15
2019-02-26T03:33:26.909Z,78.23
2019-02-26T03:35:56.844Z,78.18
2019-02-26T03:38:28.778Z,77.76
2019-02-26T03:41:01.103Z,77.76
2019-02-26T03:43:31.426Z,77.89
2019-02-26T03:46:01.623Z,78.11
2019-02-26T03:48:31.684Z,78.22
2019-02-26T03:51:01.578Z,78.13
2019-02-26T03:53:34.260Z,78.25
2019-02-26T03:56:04.480Z,78.61
2019-02-26T03:58:35.311Z,78.91
2019-02-26T04:01:08.458Z,78.15
2019-02-26T04:03:39.548Z,77.60
2019-02-26T04:06:12.048Z,76.76
2019-02-26T04:08:44.759Z,76.93
2019-02-26T04:11:16.529Z,77.69
2019-02-26T04:13:45.987Z,77.17
2019-02-26T04:16:17.298Z,77.58
2019-02-26T04:18:51.057Z,77.34
2019-02-26T04:21:21.027Z,77.74
2019-02-26T04:23:52.083Z,78.21
2019-02-26T04:26:58.931Z,79.10
2019-02-26T04:29:59.839Z,80.07
2019-02-26T04:33:07.226Z,79.95
2019-02-26T04:36:16.803Z,79.28
2019-02-26T04:39:23.689Z,79.17
2019-02-26T04:42:09.402Z,78.99
2019-02-26T04:45:18.544Z,78.75
2019-02-26T04:47:51.041Z,78.52
2019-02-26T04:50:23.046Z,78.33
2019-02-26T04:52:52.236Z,78.29
2019-02-26T04:55:22.384Z,78.47
2019-02-26T04:57:54.186Z,78.54
2019-02-26T05:00:28.000Z,78.49
2019-02-26T05:02:56.001Z,78.09
2019-02-26T05:05:30.665Z,77.52
2019-02-26T05:07:57.629Z,77.09
2019-02-26T05:10:29.767Z,77.73
2019-02-26T05:13:00.997Z,78.63
2019-02-26T05:15:33.140Z,78.73
2019-02-26T05:18:02.346Z,78.64
2019-02-26T05:20:34.117Z,78.18
2019-02-26T05:23:06.346Z,77.79
2019-02-26T05:25:37.359Z,77.30
2019-02-26T05:28:10.074Z,78.22
2019-02-26T05:30:40.445Z,78.87
2019-02-26T05:33:10.970Z,79.17
2019-02-26T05:35:43.801Z,79.17
2019-02-26T05:38:12.465Z,78.63
2019-02-26T05:40:43.261Z,77.68
2019-02-26T05:43:14.321Z,76.91
2019-02-26T05:45:44.331Z,76.95
2019-02-26T05:48:16.198Z,77.36
2019-02-26T05:50:46.039Z,78.01
2019-02-26T05:53:15.956Z,78.80
2019-02-26T05:55:48.773Z,79.71
2019-02-26T05:58:19.278Z,80.43
2019-02-26T06:00:50.338Z,80.14
2019-02-26T06:03:20.246Z,80.04
2019-02-26T06:05:51.975Z,79.75
2019-02-26T06:08:25.734Z,79.90
2019-02-26T06:10:53.543Z,80.03
2019-02-26T06:13:23.468Z,79.76
2019-02-26T06:15:55.239Z,79.91
2019-02-26T06:18:25.272Z,79.54
2019-02-26T06:20:55.900Z,79.46
2019-02-26T06:23:28.180Z,79.46
2019-02-26T06:26:02.344Z,79.40
2019-02-26T06:28:35.418Z,79.72
2019-02-26T06:31:02.471Z,79.47
2019-02-26T06:33:36.113Z,79.22
2019-02-26T06:36:04.751Z,78.78
2019-02-26T06:38:35.589Z,79.01
2019-02-26T06:41:05.528Z,79.22
2019-02-26T06:43:37.605Z,79.19
2019-02-26T06:46:09.269Z,78.93
2019-02-26T06:48:38.688Z,78.66
2019-02-26T06:51:09.649Z,78.43
2019-02-26T06:53:39.651Z,78.03
2019-02-26T06:56:09.653Z,77.46
2019-02-26T06:58:42.771Z,77.06
2019-02-26T07:01:14.246Z,76.64
2019-02-26T07:03:43.919Z,76.45
2019-02-26T07:06:13.853Z,76.50
2019-02-26T07:08:44.501Z,76.27
2019-02-26T07:11:15.447Z,75.87
2019-02-26T07:13:46.470Z,75.92
2019-02-26T07:16:18.117Z,76.53
2019-02-26T07:18:48.236Z,75.96
2019-02-26T07:21:18.248Z,75.62
2019-02-26T07:23:48.243Z,75.42
2019-02-26T07:26:20.310Z,75.20
2019-02-26T07:28:51.079Z,74.62
2019-02-26T07:31:21.930Z,74.70
2019-02-26T07:33:53.302Z,74.98
2019-02-26T07:36:24.103Z,75.11
2019-02-26T07:38:56.532Z,74.89
2019-02-26T07:41:30.177Z,73.39
2019-02-26T07:44:00.014Z,72.07
2019-02-26T07:46:30.044Z,71.62
2019-02-26T07:49:02.080Z,71.02
2019-02-26T07:51:33.439Z,70.78
2019-02-26T07:54:03.189Z,70.23
2019-02-26T07:56:33.091Z,70.38
2019-02-26T07:59:04.968Z,70.42
2019-02-26T08:01:35.427Z,70.82
2019-02-26T08:04:08.525Z,70.59
2019-02-26T08:06:38.484Z,70.14
2019-02-26T08:09:12.057Z,70.25
2019-02-26T08:11:42.126Z,70.36
2019-02-26T08:14:14.335Z,70.81
2019-02-26T08:16:44.357Z,71.66
2019-02-26T08:19:14.259Z,63.97
2019-02-26T08:21:45.482Z,61.14
2019-02-26T08:24:17.214Z,59.29
2019-02-26T08:26:49.686Z,58.29
2019-02-26T08:29:19.204Z,57.01
2019-02-26T08:31:49.660Z,56.14
2019-02-26T08:34:21.995Z,56.37
2019-02-26T08:36:51.957Z,56.97
2019-02-26T08:39:21.814Z,56.30
2019-02-26T08:42:08.968Z,56.33
2019-02-26T08:44:38.988Z,54.53
2019-02-26T08:47:11.417Z,54.35
2019-02-26T08:49:42.694Z,54.76
2019-02-26T08:52:12.407Z,53.62
2019-02-26T08:54:42.414Z,53.31
2019-02-26T08:57:12.380Z,53.07
2019-02-26T08:59:44.655Z,53.31
2019-02-26T09:02:14.178Z,52.02
2019-02-26T09:04:45.071Z,50.96
2019-02-26T09:07:16.385Z,51.69
2019-02-26T09:09:50.037Z,51.81
2019-02-26T09:12:22.403Z,51.76
2019-02-26T09:14:52.662Z,52.03
2019-02-26T09:17:26.072Z,51.08
2019-02-26T09:20:06.345Z,49.95
2019-02-26T09:22:26.668Z,50.20
2019-02-26T09:24:59.860Z,49.78
2019-02-26T09:27:30.123Z,50.25
2019-02-26T09:30:05.826Z,49.42
2019-02-26T09:32:37.473Z,49.55
2019-02-26T09:35:08.457Z,49.60
2019-02-26T09:37:38.391Z,50.04
2019-02-26T09:40:10.343Z,49.54
2019-02-26T09:42:40.256Z,49.55
2019-02-26T09:45:12.851Z,48.85
2019-02-26T09:47:44.814Z,48.68
2019-02-26T09:50:15.942Z,48.11
2019-02-26T09:52:47.891Z,47.80
2019-02-26T09:55:18.703Z,47.24
2019-02-26T09:57:48.606Z,47.19
2019-02-26T10:00:22.556Z,47.52
2019-02-26T10:02:52.135Z,47.33
2019-02-26T10:05:22.461Z,47.57
2019-02-26T10:07:54.954Z,48.14
2019-02-26T10:10:27.648Z,49.11
2019-02-26T10:12:58.777Z,47.92
2019-02-26T10:15:27.204Z,47.99
2019-02-26T10:17:59.593Z,47.20
2019-02-26T10:20:31.642Z,46.82
2019-02-26T10:23:03.264Z,45.36
2019-02-26T10:25:34.790Z,45.40
2019-02-26T10:28:08.642Z,45.69
2019-02-26T10:30:36.950Z,45.31
2019-02-26T10:33:08.542Z,45.42
2019-02-26T10:35:41.371Z,44.52
2019-02-26T10:38:11.545Z,44.39
2019-02-26T10:40:53.547Z,44.30
2019-02-26T10:43:13.600Z,43.19
2019-02-26T10:45:44.854Z,42.27
2019-02-26T10:48:18.554Z,41.44
2019-02-26T10:50:51.227Z,46.73
2019-02-26T10:53:22.608Z,41.46
2019-02-26T10:55:51.314Z,40.41
2019-02-26T10:58:21.490Z,40.52
2019-02-26T11:00:55.593Z,42.07
2019-02-26T11:03:25.192Z,41.14
2019-02-26T11:05:55.186Z,40.91
2019-02-26T11:08:28.969Z,41.08
2019-02-26T11:10:56.875Z,39.42
2019-02-26T11:13:26.847Z,38.04
2019-02-26T11:15:59.832Z,39.01
2019-02-26T11:18:28.388Z,37.83
2019-02-26T11:20:59.225Z,37.27
2019-02-26T11:23:31.210Z,36.27
2019-02-26T11:26:00.951Z,35.77
2019-02-26T11:28:33.250Z,36.54
2019-02-26T11:31:02.472Z,36.14
2019-02-26T11:33:32.487Z,37.20
2019-02-26T11:36:03.073Z,35.35
2019-02-26T11:38:35.291Z,36.64
2019-02-26T11:41:05.664Z,36.22
2019-02-26T11:43:35.576Z,34.68
2019-02-26T11:46:06.838Z,36.33
2019-02-26T11:48:37.323Z,36.47
2019-02-26T11:51:07.258Z,35.80
2019-02-26T11:53:37.147Z,34.30
2019-02-26T11:56:07.139Z,35.07
2019-02-26T11:58:37.027Z,33.76
2019-02-26T12:01:12.445Z,33.65
2019-02-26T12:03:43.947Z,35.01
2019-02-26T12:06:14.010Z,35.31
2019-02-26T12:08:44.888Z,35.27
2019-02-26T12:11:17.724Z,36.72
2019-02-26T12:13:50.208Z,35.59
2019-02-26T12:16:20.017Z,34.48
2019-02-26T12:18:49.991Z,34.83
2019-02-26T12:21:19.893Z,34.85
2019-02-26T12:23:50.845Z,35.29
2019-02-26T12:26:22.201Z,35.72
2019-02-26T12:28:54.665Z,35.09
2019-02-26T12:31:25.265Z,33.66
2019-02-26T12:33:55.666Z,32.71
2019-02-26T12:36:26.614Z,32.89
2019-02-26T12:38:59.204Z,33.64
2019-02-26T12:41:29.028Z,33.27
2019-02-26T12:44:01.407Z,33.30
2019-02-26T12:46:31.940Z,33.72
2019-02-26T12:49:02.964Z,33.77
2019-02-26T12:51:35.428Z,33.38
2019-02-26T12:54:06.208Z,32.66
2019-02-26T12:56:38.296Z,32.05
2019-02-26T12:59:08.353Z,30.16
2019-02-26T13:01:39.862Z,30.55
2019-02-26T13:04:12.894Z,31.26
2019-02-26T13:06:45.270Z,29.77
2019-02-26T13:09:13.433Z,31.17
2019-02-26T13:12:00.607Z,29.04
2019-02-26T13:14:14.988Z,29.52
2019-02-26T13:16:46.750Z,29.89
2019-02-26T13:19:21.843Z,29.15
2019-02-26T13:21:51.858Z,29.14
2019-02-26T13:24:22.401Z,29.00
2019-02-26T13:26:54.471Z,28.77
2019-02-26T13:29:25.284Z,28.48
2019-02-26T13:31:59.067Z,29.21
2019-02-26T13:34:27.204Z,27.75
2019-02-26T13:36:57.200Z,28.22
2019-02-26T13:39:33.030Z,28.71
2019-02-26T13:42:04.222Z,28.91
2019-02-26T13:44:30.600Z,29.47
2019-02-26T13:47:00.676Z,28.75
2019-02-26T13:49:30.573Z,28.34
2019-02-26T13:52:00.499Z,27.95
2019-02-26T13:54:30.431Z,28.20
2019-02-26T13:57:00.409Z,28.53
2019-02-26T13:59:30.319Z,27.34
2019-02-26T14:02:00.264Z,28.57
2019-02-26T14:04:30.171Z,29.85
2019-02-26T14:07:00.110Z,29.18
2019-02-26T14:09:31.174Z,28.62
2019-02-26T14:12:01.116Z,29.15
2019-02-26T14:14:31.195Z,30.47
2019-02-26T14:17:01.156Z,30.17
2019-02-26T14:19:31.133Z,30.49
2019-02-26T14:22:01.220Z,31.25
2019-02-26T14:24:31.032Z,31.59
2019-02-26T14:27:01.058Z,33.03
2019-02-26T14:29:30.966Z,32.71
2019-02-26T14:32:00.853Z,32.41
2019-02-26T14:34:30.662Z,32.88
2019-02-26T14:37:03.248Z,32.21
2019-02-26T14:39:33.240Z,32.38
2019-02-26T14:42:03.222Z,33.28
2019-02-26T14:44:33.195Z,32.88
2019-02-26T14:47:03.409Z,32.62
2019-02-26T14:49:33.323Z,33.97
2019-02-26T14:52:03.208Z,33.44
2019-02-26T14:54:33.170Z,32.70
2019-02-26T14:57:03.111Z,33.48
2019-02-26T14:59:33.151Z,33.14
2019-02-26T15:02:03.148Z,33.67
2019-02-26T15:04:33.106Z,33.54
2019-02-26T15:07:04.155Z,33.54
2019-02-26T15:09:34.595Z,33.84
2019-02-26T15:12:04.717Z,33.81
2019-02-26T15:14:34.631Z,33.91
2019-02-26T15:17:04.532Z,34.45
2019-02-26T15:19:34.502Z,34.41
2019-02-26T15:22:04.523Z,35.01
2019-02-26T15:24:34.517Z,35.14
2019-02-26T15:27:04.486Z,35.93
2019-02-26T15:29:34.389Z,36.10
2019-02-26T15:32:04.584Z,36.88
2019-02-26T15:34:34.561Z,37.25
2019-02-26T15:37:05.654Z,37.42
2019-02-26T15:39:35.548Z,37.88
2019-02-26T15:42:05.591Z,38.14
2019-02-26T15:44:35.455Z,38.27
2019-02-26T15:47:05.488Z,37.85
2019-02-26T15:49:35.834Z,37.63
2019-02-26T15:52:07.016Z,36.65
2019-02-26T15:54:37.060Z,37.12
2019-02-26T15:57:09.898Z,36.35
2019-02-26T15:59:39.756Z,36.93
2019-02-26T16:02:09.787Z,36.73
2019-02-26T16:04:39.647Z,36.75
2019-02-26T16:07:09.838Z,36.84
2019-02-26T16:09:40.554Z,37.06
2019-02-26T16:12:10.633Z,36.99
2019-02-26T16:14:40.553Z,37.97
2019-02-26T16:17:10.730Z,37.84
2019-02-26T16:19:40.584Z,38.09
2019-02-26T16:22:10.462Z,38.31
2019-02-26T16:24:40.308Z,38.62
2019-02-26T16:27:10.168Z,39.05
2019-02-26T16:29:41.469Z,39.52
2019-02-26T16:32:11.442Z,39.80
2019-02-26T16:34:41.360Z,40.15
2019-02-26T16:37:11.382Z,40.31
2019-02-26T16:39:41.523Z,40.54
2019-02-26T16:42:11.777Z,40.84
2019-02-26T16:44:42.307Z,41.39
2019-02-26T16:47:12.656Z,41.66
2019-02-26T16:49:43.899Z,42.18
2019-02-26T16:52:14.761Z,42.71
2019-02-26T16:54:44.678Z,43.10
2019-02-26T16:57:14.628Z,43.24
2019-02-26T16:59:44.480Z,43.59
2019-02-26T17:02:15.095Z,44.32
2019-02-26T17:04:44.895Z,44.04
2019-02-26T17:07:14.803Z,44.64
2019-02-26T17:09:45.677Z,44.93
2019-02-26T17:12:15.652Z,45.19
2019-02-26T17:14:45.851Z,45.10
2019-02-26T17:17:15.811Z,45.66
2019-02-26T17:19:48.302Z,46.30
2019-02-26T17:22:17.302Z,46.84
2019-02-26T17:24:47.283Z,47.28
2019-02-26T17:27:17.237Z,47.76
2019-02-26T17:29:49.605Z,48.08
2019-02-26T17:32:18.984Z,48.25
2019-02-26T17:34:49.758Z,48.71
2019-02-26T17:37:20.455Z,49.17
2019-02-26T17:39:50.453Z,49.38
2019-02-26T17:42:20.416Z,50.42
2019-02-26T17:44:51.334Z,50.78
2019-02-26T17:47:21.354Z,51.37
2019-02-26T17:49:52.333Z,51.96
2019-02-26T17:52:22.332Z,51.68
2019-02-26T17:54:52.343Z,51.54
2019-02-26T17:57:22.318Z,51.35
2019-02-26T17:59:52.776Z,52.05
2019-02-26T18:02:22.747Z,51.81
2019-02-26T18:04:52.619Z,52.46
2019-02-26T18:07:22.558Z,53.14
2019-02-26T18:09:52.660Z,53.81
2019-02-26T18:12:23.742Z,54.37
2019-02-26T18:14:53.693Z,55.22
2019-02-26T18:17:23.547Z,55.97
2019-02-26T18:19:53.479Z,56.52
2019-02-26T18:22:23.322Z,56.99
2019-02-26T18:24:53.288Z,57.35
2019-02-26T18:27:23.232Z,56.70
2019-02-26T18:29:53.231Z,56.97
2019-02-26T18:32:23.149Z,57.04
2019-02-26T18:34:53.014Z,57.25
2019-02-26T18:37:23.994Z,57.55
2019-02-26T18:39:54.808Z,58.39
2019-02-26T18:42:25.289Z,58.59
2019-02-26T18:44:55.191Z,59.13
2019-02-26T18:47:25.022Z,59.44
2019-02-26T18:49:56.089Z,59.45
2019-02-26T18:52:26.445Z,59.57
2019-02-26T18:54:56.335Z,59.63
2019-02-26T18:57:26.282Z,59.80
2019-02-26T18:59:56.112Z,60.31
2019-02-26T19:02:25.984Z,60.68
2019-02-26T19:04:55.893Z,61.21
2019-02-26T19:07:25.791Z,61.53
2019-02-26T19:09:55.763Z,61.98
2019-02-26T19:12:25.726Z,62.37
2019-02-26T19:14:55.643Z,62.42
2019-02-26T19:17:26.828Z,62.34
2019-02-26T19:19:58.227Z,62.24
2019-02-26T19:22:28.122Z,62.02
2019-02-26T19:24:58.034Z,62.31
2019-02-26T19:27:27.986Z,62.48
2019-02-26T19:29:57.801Z,62.42
2019-02-26T19:32:28.805Z,62.56
2019-02-26T19:35:00.999Z,62.72
2019-02-26T19:37:30.460Z,62.87
2019-02-26T19:40:00.320Z,62.61
2019-02-26T19:42:30.365Z,62.22
2019-02-26T19:45:00.350Z,62.04
2019-02-26T19:47:30.314Z,61.64
2019-02-26T19:50:00.311Z,61.63
2019-02-26T19:52:30.089Z,61.59
2019-02-26T19:55:00.223Z,62.13
2019-02-26T19:57:30.315Z,62.17
2019-02-26T20:00:01.147Z,62.87
2019-02-26T20:02:32.477Z,62.75
2019-02-26T20:05:03.304Z,62.95
2019-02-26T20:07:35.150Z,63.40
2019-02-26T20:10:05.774Z,63.86
2019-02-26T20:12:35.760Z,64.28
2019-02-26T20:15:06.113Z,64.63
2019-02-26T20:17:36.039Z,64.65
2019-02-26T20:20:06.772Z,64.75
2019-02-26T20:22:36.798Z,64.97
2019-02-26T20:25:07.914Z,64.80
2019-02-26T20:27:37.803Z,64.55
2019-02-26T20:30:09.580Z,64.60
2019-02-26T20:32:40.039Z,64.84
2019-02-26T20:35:11.973Z,65.02
2019-02-26T20:37:42.537Z,65.35
2019-02-26T20:40:16.299Z,65.35
2019-02-26T20:42:46.291Z,65.06
2019-02-26T20:45:18.819Z,65.34
2019-02-26T20:47:48.878Z,65.45
2019-02-26T20:50:21.064Z,65.75
2019-02-26T20:52:50.518Z,65.91
2019-02-26T20:55:20.787Z,65.98
2019-02-26T20:57:50.799Z,65.96
2019-02-26T21:00:24.905Z,65.75
2019-02-26T21:02:52.679Z,65.83
2019-02-26T21:05:22.544Z,65.72
2019-02-26T21:07:52.409Z,65.61
2019-02-26T21:10:22.476Z,65.31
2019-02-26T21:12:52.494Z,65.09
2019-02-26T21:15:22.568Z,64.91
2019-02-26T21:17:52.527Z,64.62
2019-02-26T21:20:22.457Z,64.78
2019-02-26T21:22:54.605Z,64.54
2019-02-26T21:25:24.087Z,64.07
2019-02-26T21:27:54.008Z,64.12
2019-02-26T21:30:24.077Z,63.93
2019-02-26T21:32:57.817Z,63.80
2019-02-26T21:35:25.664Z,63.76
2019-02-26T21:37:55.693Z,63.81
2019-02-26T21:40:25.517Z,63.89
2019-02-26T21:42:55.471Z,63.85
2019-02-26T21:45:25.333Z,62.99
2019-02-26T21:47:55.339Z,63.36
2019-02-26T21:50:25.210Z,63.41
2019-02-26T21:53:02.230Z,62.66
2019-02-26T21:55:26.747Z,62.65
2019-02-26T21:57:56.578Z,62.77
2019-02-26T22:00:26.592Z,62.72
2019-02-26T22:02:56.442Z,62.55
2019-02-26T22:05:26.385Z,62.69
2019-02-26T22:07:56.215Z,62.84
2019-02-26T22:10:26.246Z,62.77
2019-02-26T22:12:56.879Z,63.33
2019-02-26T22:15:27.314Z,63.59
2019-02-26T22:17:58.126Z,63.54
2019-02-26T22:20:36.292Z,63.62
2019-02-26T22:23:01.143Z,63.32
2019-02-26T22:25:31.301Z,63.05
2019-02-26T22:28:01.204Z,62.71
2019-02-26T22:30:31.097Z,62.16
2019-02-26T22:33:00.964Z,60.38
2019-02-26T22:35:30.865Z,58.63
2019-02-26T22:38:00.744Z,56.84
2019-02-26T22:40:30.573Z,55.73
2019-02-26T22:43:00.549Z,56.14
2019-02-26T22:45:30.635Z,56.05
2019-02-26T22:48:00.891Z,55.84
2019-02-26T22:50:30.725Z,55.64
2019-02-26T22:53:03.749Z,56.09
2019-02-26T22:55:32.305Z,55.89
2019-02-26T22:58:02.774Z,55.69
2019-02-26T23:01:06.071Z,55.29
2019-02-26T23:03:37.776Z,55.18
2019-02-26T23:06:08.158Z,55.68
2019-02-26T23:08:38.249Z,56.16
2019-02-26T23:11:09.611Z,56.65
2019-02-26T23:13:39.777Z,56.45
2019-02-26T23:16:09.820Z,56.63
2019-02-26T23:18:40.118Z,56.92
2019-02-26T23:21:15.436Z,57.50
2019-02-26T23:23:43.614Z,57.62
2019-02-26T23:26:13.804Z,57.85
2019-02-26T23:28:43.903Z,57.77
2019-02-26T23:31:14.565Z,57.98
2019-02-26T23:33:48.400Z,58.40
2019-02-26T23:36:18.172Z,57.93
2019-02-26T23:38:48.919Z,58.24
2019-02-26T23:41:18.901Z,58.25
2019-02-26T23:43:48.919Z,57.89
2019-02-26T23:46:20.016Z,58.46
2019-02-26T23:48:49.845Z,58.49
2019-02-26T23:51:21.042Z,58.27
2019-02-26T23:53:51.120Z,58.57
2019-02-26T23:56:21.042Z,57.86
2019-02-26T23:58:50.911Z,57.57
